Portada
METAR-TAF:

METAR-TAF

Aeropuertos :

Aeropuerto de Luxemburgo Findel

Luxemburgo, Luxemburgo

latitud: 49-37N, longitud: 006-13E, altitud: 376 m

Observación

El informe se hizo hace 17 minutos, a las 10:20 UTC
Viento 10 kt del sur, variando entre sur-sureste y sur-suroeste
Temperatura 12°C
Humedad 54%
Presión 1016 hPa
Visibilidad 10 km o más
sin nubes por debajo de 1500 m y sin presencia de cumulonimbus.

METAR: ELLX 081020Z 17010KT 150V210 CAVOK 12/03 Q1016 NOSIG

Hora: 12:37 (10:37 UTC)

Pronóstico

El informe se hizo hace 5 horas y 37 minutos, a las 05:00 UTC
Pronóstico válido del 08 a las 06 UTC al 09 a las 12 UTC
Viento 10 kt del sur
Visibilidad 10 km o más
sin nubes por debajo de 1500 m y sin presencia de cumulonimbus.
Temporalmente
del 08 a las 11 UTC al 08 a las 18 UTC
Viento 10 kt del sur con ráfagas de 20 kt

TAF: ELLX 080500Z 0806/0912 17010KT CAVOK TEMPO 0811/0818 18010G20KT

Observaciones y pronósticos meteorológicos de más de 4000 aeropuertos (mensajes METAR y TAF).

Los puntos amarillos y rojos representan las estaciones disponibles.

Ponga el ratón en el punto deseado para ver el nombre de la estación.

Haga clic para ver las observaciones y los pronósticos meteorológicos.

Para cambiar el mapa : haga clic en los botones verdes con una cruz de color negro para hacer un zoom, en el botón verde con un guión para alejar o en las flechas verdes para mapas adyacentes.


METAR-TAF: